sensor_id;sensor_type;location;lat;lon;timestamp;pressure;altitude;pressure_sealevel;temperature;humidity
14089;BME280;7120;52.890;6.040;2023-05-12T00:01:14;101777.78;;;11.07;100.00
14089;BME280;7120;52.890;6.040;2023-05-12T00:03:40;101769.03;;;11.05;100.00
14089;BME280;7120;52.890;6.040;2023-05-12T00:06:06;101770.91;;;11.10;100.00
14089;BME280;7120;52.890;6.040;2023-05-12T00:08:31;101769.00;;;11.10;100.00
14089;BME280;7120;52.890;6.040;2023-05-12T00:10:57;101769.56;;;11.07;100.00
14089;BME280;7120;52.890;6.040;2023-05-12T00:13:23;101764.88;;;11.13;100.00
14089;BME280;7120;52.890;6.040;2023-05-12T00:15:49;101762.41;;;11.16;100.00
14089;BME280;7120;52.890;6.040;2023-05-12T00:18:15;101758.03;;;11.15;100.00
14089;BME280;7120;52.890;6.040;2023-05-12T00:20:40;101763.81;;;11.09;100.00
14089;BME280;7120;52.890;6.040;2023-05-12T00:23:05;101759.69;;;11.11;100.00
14089;BME280;7120;52.890;6.040;2023-05-12T00:25:31;101761.28;;;11.22;100.00
14089;BME280;7120;52.890;6.040;2023-05-12T00:27:56;101770.28;;;11.23;100.00
14089;BME280;7120;52.890;6.040;2023-05-12T00:30:22;101763.78;;;11.14;100.00
14089;BME280;7120;52.890;6.040;2023-05-12T00:32:47;101765.94;;;11.17;100.00
14089;BME280;7120;52.890;6.040;2023-05-12T00:35:13;101753.34;;;11.21;100.00
14089;BME280;7120;52.890;6.040;2023-05-12T00:37:40;101763.22;;;11.17;100.00
14089;BME280;7120;52.890;6.040;2023-05-12T00:40:06;101769.97;;;11.35;100.00
14089;BME280;7120;52.890;6.040;2023-05-12T00:42:33;101763.44;;;11.25;100.00
14089;BME280;7120;52.890;6.040;2023-05-12T00:44:58;101752.19;;;11.27;100.00
14089;BME280;7120;52.890;6.040;2023-05-12T00:47:24;101756.59;;;11.23;100.00
14089;BME280;7120;52.890;6.040;2023-05-12T00:49:50;101773.03;;;11.23;100.00
14089;BME280;7120;52.890;6.040;2023-05-12T00:52:15;101768.69;;;11.17;100.00
14089;BME280;7120;52.890;6.040;2023-05-12T00:54:41;101778.81;;;11.21;100.00
14089;BME280;7120;52.890;6.040;2023-05-12T00:57:09;101766.78;;;11.12;100.00
14089;BME280;7120;52.890;6.040;2023-05-12T00:59:34;101766.75;;;11.17;100.00
14089;BME280;7120;52.890;6.040;2023-05-12T01:02:00;101768.91;;;11.25;100.00
14089;BME280;7120;52.890;6.040;2023-05-12T01:04:25;101756.41;;;11.09;100.00
14089;BME280;7120;52.890;6.040;2023-05-12T01:07:02;101756.09;;;11.21;100.00
14089;BME280;7120;52.890;6.040;2023-05-12T01:09:29;101757.44;;;11.18;100.00
14089;BME280;7120;52.890;6.040;2023-05-12T01:11:55;101767.78;;;11.26;100.00
14089;BME280;7120;52.890;6.040;2023-05-12T01:14:20;101756.63;;;11.18;100.00
14089;BME280;7120;52.890;6.040;2023-05-12T01:16:53;101756.03;;;11.26;100.00
14089;BME280;7120;52.890;6.040;2023-05-12T01:22:05;101756.00;;;11.31;100.00
14089;BME280;7120;52.890;6.040;2023-05-12T01:24:31;101760.97;;;11.24;100.00
14089;BME280;7120;52.890;6.040;2023-05-12T01:26:59;101760.41;;;11.27;100.00
14089;BME280;7120;52.890;6.040;2023-05-12T01:29:26;101761.47;;;11.31;100.00
14089;BME280;7120;52.890;6.040;2023-05-12T01:31:52;101766.44;;;11.24;100.00
14089;BME280;7120;52.890;6.040;2023-05-12T01:34:17;101764.22;;;11.31;100.00
14089;BME280;7120;52.890;6.040;2023-05-12T01:36:43;101768.78;;;11.41;100.00
14089;BME280;7120;52.890;6.040;2023-05-12T01:39:08;101768.84;;;11.36;100.00
14089;BME280;7120;52.890;6.040;2023-05-12T01:41:34;101766.75;;;11.22;100.00
14089;BME280;7120;52.890;6.040;2023-05-12T01:44:00;101766.88;;;11.41;100.00
14089;BME280;7120;52.890;6.040;2023-05-12T01:46:25;101758.66;;;11.41;100.00
14089;BME280;7120;52.890;6.040;2023-05-12T01:48:50;101756.75;;;11.42;100.00
14089;BME280;7120;52.890;6.040;2023-05-12T01:51:16;101747.16;;;11.44;100.00
14089;BME280;7120;52.890;6.040;2023-05-12T01:53:41;101743.31;;;11.45;100.00
14089;BME280;7120;52.890;6.040;2023-05-12T01:56:06;101739.22;;;11.43;100.00
14089;BME280;7120;52.890;6.040;2023-05-12T01:58:32;101733.75;;;11.43;100.00
14089;BME280;7120;52.890;6.040;2023-05-12T02:00:57;101734.56;;;11.43;100.00
14089;BME280;7120;52.890;6.040;2023-05-12T02:03:22;101731.75;;;11.48;100.00
14089;BME280;7120;52.890;6.040;2023-05-12T02:05:48;101727.06;;;11.54;100.00
14089;BME280;7120;52.890;6.040;2023-05-12T02:08:13;101735.06;;;11.45;100.00
14089;BME280;7120;52.890;6.040;2023-05-12T02:10:38;101730.09;;;11.52;100.00
14089;BME280;7120;52.890;6.040;2023-05-12T02:13:04;101730.84;;;11.63;100.00
14089;BME280;7120;52.890;6.040;2023-05-12T02:15:29;101730.34;;;11.56;100.00
14089;BME280;7120;52.890;6.040;2023-05-12T02:17:55;101738.50;;;11.61;100.00
14089;BME280;7120;52.890;6.040;2023-05-12T02:20:21;101734.66;;;11.62;100.00
14089;BME280;7120;52.890;6.040;2023-05-12T02:22:46;101741.97;;;11.77;100.00
14089;BME280;7120;52.890;6.040;2023-05-12T02:25:12;101732.06;;;11.76;100.00
14089;BME280;7120;52.890;6.040;2023-05-12T02:27:37;101734.28;;;11.74;100.00
14089;BME280;7120;52.890;6.040;2023-05-12T02:30:03;101736.53;;;11.67;100.00
14089;BME280;7120;52.890;6.040;2023-05-12T02:32:28;101725.50;;;11.77;100.00
14089;BME280;7120;52.890;6.040;2023-05-12T02:34:54;101731.50;;;11.79;100.00
14089;BME280;7120;52.890;6.040;2023-05-12T02:37:20;101729.34;;;11.76;100.00
14089;BME280;7120;52.890;6.040;2023-05-12T02:39:45;101738.34;;;11.81;100.00
14089;BME280;7120;52.890;6.040;2023-05-12T02:42:11;101732.53;;;11.88;100.00
14089;BME280;7120;52.890;6.040;2023-05-12T02:44:36;101727.09;;;11.83;100.00
14089;BME280;7120;52.890;6.040;2023-05-12T02:47:01;101735.88;;;11.85;100.00
14089;BME280;7120;52.890;6.040;2023-05-12T02:49:27;101728.63;;;11.65;100.00
14089;BME280;7120;52.890;6.040;2023-05-12T02:51:52;101731.44;;;11.89;100.00
14089;BME280;7120;52.890;6.040;2023-05-12T02:54:19;101726.28;;;11.82;100.00
14089;BME280;7120;52.890;6.040;2023-05-12T02:56:44;101719.44;;;11.80;100.00
14089;BME280;7120;52.890;6.040;2023-05-12T02:59:09;101730.66;;;11.83;100.00
14089;BME280;7120;52.890;6.040;2023-05-12T03:01:36;101730.97;;;11.82;100.00
14089;BME280;7120;52.890;6.040;2023-05-12T03:04:01;101737.94;;;11.98;100.00
14089;BME280;7120;52.890;6.040;2023-05-12T03:06:27;101739.38;;;11.91;100.00
14089;BME280;7120;52.890;6.040;2023-05-12T03:08:53;101730.00;;;11.97;100.00
14089;BME280;7120;52.890;6.040;2023-05-12T03:11:20;101732.72;;;11.97;100.00
14089;BME280;7120;52.890;6.040;2023-05-12T03:13:46;101736.88;;;11.94;100.00
14089;BME280;7120;52.890;6.040;2023-05-12T03:16:12;101733.47;;;12.07;100.00
14089;BME280;7120;52.890;6.040;2023-05-12T03:18:37;101729.34;;;12.05;100.00
14089;BME280;7120;52.890;6.040;2023-05-12T03:21:02;101741.72;;;12.02;100.00
14089;BME280;7120;52.890;6.040;2023-05-12T03:23:28;101744.72;;;12.06;100.00
14089;BME280;7120;52.890;6.040;2023-05-12T03:25:53;101732.16;;;12.00;100.00
14089;BME280;7120;52.890;6.040;2023-05-12T03:28:19;101736.84;;;11.99;100.00
14089;BME280;7120;52.890;6.040;2023-05-12T03:30:47;101733.47;;;12.07;100.00
14089;BME280;7120;52.890;6.040;2023-05-12T03:33:12;101731.28;;;12.04;100.00
14089;BME280;7120;52.890;6.040;2023-05-12T03:35:38;101721.91;;;12.10;100.00
14089;BME280;7120;52.890;6.040;2023-05-12T03:38:03;101717.56;;;12.04;100.00
14089;BME280;7120;52.890;6.040;2023-05-12T03:40:28;101721.13;;;12.05;100.00
14089;BME280;7120;52.890;6.040;2023-05-12T03:42:54;101721.72;;;12.02;100.00
14089;BME280;7120;52.890;6.040;2023-05-12T03:45:19;101731.81;;;12.06;100.00
14089;BME280;7120;52.890;6.040;2023-05-12T03:47:45;101728.88;;;11.98;100.00
14089;BME280;7120;52.890;6.040;2023-05-12T03:50:10;101743.00;;;12.10;100.00
14089;BME280;7120;52.890;6.040;2023-05-12T03:52:36;101737.22;;;12.12;100.00
14089;BME280;7120;52.890;6.040;2023-05-12T03:55:04;101739.75;;;12.08;100.00
14089;BME280;7120;52.890;6.040;2023-05-12T03:57:30;101737.56;;;12.05;100.00
14089;BME280;7120;52.890;6.040;2023-05-12T03:59:55;101747.03;;;12.18;100.00
14089;BME280;7120;52.890;6.040;2023-05-12T04:02:20;101742.16;;;12.15;100.00
14089;BME280;7120;52.890;6.040;2023-05-12T04:04:46;101747.16;;;12.07;100.00
14089;BME280;7120;52.890;6.040;2023-05-12T04:07:11;101746.53;;;12.16;100.00
14089;BME280;7120;52.890;6.040;2023-05-12T04:09:36;101739.38;;;12.20;100.00
14089;BME280;7120;52.890;6.040;2023-05-12T04:12:02;101737.44;;;12.20;100.00
14089;BME280;7120;52.890;6.040;2023-05-12T04:14:27;101750.84;;;12.22;100.00
14089;BME280;7120;52.890;6.040;2023-05-12T04:16:53;101754.13;;;12.24;100.00
14089;BME280;7120;52.890;6.040;2023-05-12T04:19:18;101750.72;;;12.32;100.00
14089;BME280;7120;52.890;6.040;2023-05-12T04:21:43;101753.56;;;12.27;100.00
14089;BME280;7120;52.890;6.040;2023-05-12T04:24:09;101750.22;;;12.30;100.00
14089;BME280;7120;52.890;6.040;2023-05-12T04:26:34;101746.88;;;12.33;100.00
14089;BME280;7120;52.890;6.040;2023-05-12T04:28:59;101746.00;;;12.37;100.00
14089;BME280;7120;52.890;6.040;2023-05-12T04:31:25;101742.06;;;12.49;100.00
14089;BME280;7120;52.890;6.040;2023-05-12T04:33:50;101733.56;;;12.45;100.00
14089;BME280;7120;52.890;6.040;2023-05-12T04:36:16;101753.84;;;12.49;100.00
14089;BME280;7120;52.890;6.040;2023-05-12T04:38:41;101756.59;;;12.49;100.00
14089;BME280;7120;52.890;6.040;2023-05-12T04:41:06;101753.50;;;12.56;100.00
14089;BME280;7120;52.890;6.040;2023-05-12T04:43:32;101757.88;;;12.57;100.00
14089;BME280;7120;52.890;6.040;2023-05-12T04:45:57;101757.22;;;12.65;100.00
14089;BME280;7120;52.890;6.040;2023-05-12T04:48:23;101754.81;;;12.58;100.00
14089;BME280;7120;52.890;6.040;2023-05-12T04:50:48;101750.03;;;12.69;100.00
14089;BME280;7120;52.890;6.040;2023-05-12T04:53:14;101748.38;;;12.68;100.00
14089;BME280;7120;52.890;6.040;2023-05-12T04:55:40;101746.19;;;12.70;100.00
14089;BME280;7120;52.890;6.040;2023-05-12T04:58:05;101751.00;;;12.78;100.00
14089;BME280;7120;52.890;6.040;2023-05-12T05:00:31;101759.41;;;12.87;100.00
14089;BME280;7120;52.890;6.040;2023-05-12T05:02:56;101763.16;;;12.72;100.00
14089;BME280;7120;52.890;6.040;2023-05-12T05:05:22;101769.34;;;12.83;100.00
14089;BME280;7120;52.890;6.040;2023-05-12T05:07:47;101761.03;;;12.88;100.00
14089;BME280;7120;52.890;6.040;2023-05-12T05:10:13;101766.47;;;12.93;100.00
14089;BME280;7120;52.890;6.040;2023-05-12T05:12:38;101772.41;;;13.00;100.00
14089;BME280;7120;52.890;6.040;2023-05-12T05:15:04;101771.34;;;12.96;100.00
14089;BME280;7120;52.890;6.040;2023-05-12T05:17:29;101775.91;;;13.06;100.00
14089;BME280;7120;52.890;6.040;2023-05-12T05:19:55;101781.84;;;13.13;100.00
14089;BME280;7120;52.890;6.040;2023-05-12T05:22:20;101775.59;;;13.07;100.00
14089;BME280;7120;52.890;6.040;2023-05-12T05:24:45;101770.28;;;13.35;100.00
14089;BME280;7120;52.890;6.040;2023-05-12T05:27:11;101781.47;;;13.19;100.00
14089;BME280;7120;52.890;6.040;2023-05-12T05:29:37;101783.53;;;13.33;100.00
14089;BME280;7120;52.890;6.040;2023-05-12T05:32:03;101776.75;;;13.25;100.00
14089;BME280;7120;52.890;6.040;2023-05-12T05:34:28;101791.22;;;13.31;100.00
14089;BME280;7120;52.890;6.040;2023-05-12T05:36:54;101776.91;;;13.34;100.00
14089;BME280;7120;52.890;6.040;2023-05-12T05:39:19;101787.53;;;13.40;100.00
14089;BME280;7120;52.890;6.040;2023-05-12T05:41:45;101797.25;;;13.33;100.00
14089;BME280;7120;52.890;6.040;2023-05-12T05:44:10;101794.84;;;13.45;100.00
14089;BME280;7120;52.890;6.040;2023-05-12T05:46:35;101800.22;;;13.36;100.00
14089;BME280;7120;52.890;6.040;2023-05-12T05:49:01;101802.16;;;13.36;100.00
14089;BME280;7120;52.890;6.040;2023-05-12T05:51:26;101795.53;;;13.37;100.00
14089;BME280;7120;52.890;6.040;2023-05-12T05:53:51;101801.03;;;13.56;100.00
14089;BME280;7120;52.890;6.040;2023-05-12T05:56:17;101804.22;;;13.44;100.00
14089;BME280;7120;52.890;6.040;2023-05-12T05:58:42;101795.91;;;13.68;100.00
14089;BME280;7120;52.890;6.040;2023-05-12T06:01:07;101808.38;;;13.93;100.00
14089;BME280;7120;52.890;6.040;2023-05-12T06:03:33;101811.75;;;13.90;100.00
14089;BME280;7120;52.890;6.040;2023-05-12T06:05:58;101807.94;;;14.05;100.00
14089;BME280;7120;52.890;6.040;2023-05-12T06:08:24;101819.50;;;13.69;100.00
14089;BME280;7120;52.890;6.040;2023-05-12T06:10:49;101807.22;;;13.80;100.00
14089;BME280;7120;52.890;6.040;2023-05-12T06:13:14;101810.56;;;13.96;100.00
14089;BME280;7120;52.890;6.040;2023-05-12T06:15:40;101822.88;;;13.98;100.00
14089;BME280;7120;52.890;6.040;2023-05-12T06:18:05;101819.47;;;14.20;100.00
14089;BME280;7120;52.890;6.040;2023-05-12T06:20:31;101827.34;;;14.27;100.00
14089;BME280;7120;52.890;6.040;2023-05-12T06:22:56;101832.38;;;14.06;100.00
14089;BME280;7120;52.890;6.040;2023-05-12T06:25:22;101828.13;;;14.14;100.00
14089;BME280;7120;52.890;6.040;2023-05-12T06:27:50;101832.22;;;14.30;100.00
14089;BME280;7120;52.890;6.040;2023-05-12T06:30:15;101830.81;;;13.67;100.00
14089;BME280;7120;52.890;6.040;2023-05-12T06:32:41;101844.31;;;13.83;100.00
14089;BME280;7120;52.890;6.040;2023-05-12T06:35:06;101845.63;;;14.04;100.00
14089;BME280;7120;52.890;6.040;2023-05-12T06:37:32;101839.19;;;14.09;100.00
14089;BME280;7120;52.890;6.040;2023-05-12T06:39:57;101831.69;;;13.82;100.00
14089;BME280;7120;52.890;6.040;2023-05-12T06:42:23;101839.84;;;13.87;100.00
14089;BME280;7120;52.890;6.040;2023-05-12T06:44:48;101842.06;;;14.04;100.00
14089;BME280;7120;52.890;6.040;2023-05-12T06:47:13;101851.94;;;14.05;100.00
14089;BME280;7120;52.890;6.040;2023-05-12T06:49:40;101862.19;;;13.99;100.00
14089;BME280;7120;52.890;6.040;2023-05-12T06:52:05;101845.19;;;13.97;100.00
14089;BME280;7120;52.890;6.040;2023-05-12T06:54:31;101849.63;;;13.93;100.00
14089;BME280;7120;52.890;6.040;2023-05-12T06:56:56;101868.81;;;13.98;100.00
14089;BME280;7120;52.890;6.040;2023-05-12T06:59:22;101857.16;;;13.87;100.00
14089;BME280;7120;52.890;6.040;2023-05-12T07:01:47;101853.59;;;13.87;100.00
14089;BME280;7120;52.890;6.040;2023-05-12T07:04:12;101853.22;;;13.93;100.00
14089;BME280;7120;52.890;6.040;2023-05-12T07:06:38;101860.53;;;14.17;100.00
14089;BME280;7120;52.890;6.040;2023-05-12T07:09:03;101866.38;;;13.96;100.00
14089;BME280;7120;52.890;6.040;2023-05-12T07:11:29;101875.94;;;14.18;100.00
14089;BME280;7120;52.890;6.040;2023-05-12T07:13:54;101870.28;;;14.42;100.00
14089;BME280;7120;52.890;6.040;2023-05-12T07:16:19;101871.00;;;14.15;100.00
14089;BME280;7120;52.890;6.040;2023-05-12T07:18:45;101875.19;;;14.12;100.00
14089;BME280;7120;52.890;6.040;2023-05-12T07:21:11;101869.88;;;14.16;100.00
14089;BME280;7120;52.890;6.040;2023-05-12T07:23:37;101884.94;;;14.05;100.00
14089;BME280;7120;52.890;6.040;2023-05-12T07:26:05;101875.81;;;13.90;100.00
14089;BME280;7120;52.890;6.040;2023-05-12T07:28:32;101871.19;;;14.05;100.00
14089;BME280;7120;52.890;6.040;2023-05-12T07:31:04;101884.94;;;14.05;100.00
14089;BME280;7120;52.890;6.040;2023-05-12T07:33:31;101877.50;;;14.05;100.00
14089;BME280;7120;52.890;6.040;2023-05-12T07:35:57;101875.22;;;14.26;100.00
14089;BME280;7120;52.890;6.040;2023-05-12T07:38:22;101881.81;;;14.11;100.00
14089;BME280;7120;52.890;6.040;2023-05-12T07:40:50;101884.53;;;14.44;100.00
14089;BME280;7120;52.890;6.040;2023-05-12T07:43:16;101889.25;;;14.11;100.00
14089;BME280;7120;52.890;6.040;2023-05-12T07:45:42;101883.41;;;14.31;100.00
14089;BME280;7120;52.890;6.040;2023-05-12T07:48:08;101885.94;;;14.27;100.00
14089;BME280;7120;52.890;6.040;2023-05-12T07:50:33;101891.09;;;14.15;100.00
14089;BME280;7120;52.890;6.040;2023-05-12T07:52:59;101892.31;;;13.90;100.00
14089;BME280;7120;52.890;6.040;2023-05-12T07:55:24;101894.06;;;14.19;100.00
14089;BME280;7120;52.890;6.040;2023-05-12T07:57:50;101888.63;;;14.14;100.00
14089;BME280;7120;52.890;6.040;2023-05-12T08:00:15;101896.00;;;14.18;100.00
14089;BME280;7120;52.890;6.040;2023-05-12T08:02:41;101908.00;;;14.41;100.00
14089;BME280;7120;52.890;6.040;2023-05-12T08:05:08;101902.31;;;14.51;100.00
14089;BME280;7120;52.890;6.040;2023-05-12T08:07:37;101905.44;;;14.31;100.00
14089;BME280;7120;52.890;6.040;2023-05-12T08:10:04;101903.44;;;14.50;100.00
14089;BME280;7120;52.890;6.040;2023-05-12T08:12:30;101911.19;;;14.48;100.00
14089;BME280;7120;52.890;6.040;2023-05-12T08:14:56;101907.16;;;14.60;100.00
14089;BME280;7120;52.890;6.040;2023-05-12T08:17:21;101907.75;;;14.56;100.00
14089;BME280;7120;52.890;6.040;2023-05-12T08:19:46;101916.94;;;14.79;100.00
14089;BME280;7120;52.890;6.040;2023-05-12T08:22:12;101924.22;;;14.75;100.00
14089;BME280;7120;52.890;6.040;2023-05-12T08:24:37;101917.09;;;14.88;100.00
14089;BME280;7120;52.890;6.040;2023-05-12T08:27:03;101925.06;;;15.31;100.00
14089;BME280;7120;52.890;6.040;2023-05-12T08:29:28;101922.25;;;15.72;100.00
14089;BME280;7120;52.890;6.040;2023-05-12T08:31:54;101916.84;;;15.67;100.00
14089;BME280;7120;52.890;6.040;2023-05-12T08:34:19;101919.59;;;15.81;100.00
14089;BME280;7120;52.890;6.040;2023-05-12T08:36:45;101923.38;;;16.07;100.00
14089;BME280;7120;52.890;6.040;2023-05-12T08:39:10;101914.72;;;16.23;100.00
14089;BME280;7120;52.890;6.040;2023-05-12T08:42:11;101922.78;;;16.41;100.00
14089;BME280;7120;52.890;6.040;2023-05-12T08:44:26;101927.50;;;16.94;100.00
14089;BME280;7120;52.890;6.040;2023-05-12T08:46:53;101922.59;;;16.91;100.00
14089;BME280;7120;52.890;6.040;2023-05-12T08:49:21;101932.44;;;17.06;100.00
14089;BME280;7120;52.890;6.040;2023-05-12T08:51:49;101937.34;;;17.18;100.00
14089;BME280;7120;52.890;6.040;2023-05-12T08:54:17;101933.41;;;17.67;100.00
14089;BME280;7120;52.890;6.040;2023-05-12T08:56:45;101947.00;;;17.29;100.00
14089;BME280;7120;52.890;6.040;2023-05-12T08:59:11;101939.59;;;17.64;100.00
14089;BME280;7120;52.890;6.040;2023-05-12T09:01:37;101940.28;;;17.96;100.00
14089;BME280;7120;52.890;6.040;2023-05-12T09:04:06;101931.66;;;17.89;100.00
14089;BME280;7120;52.890;6.040;2023-05-12T09:06:32;101942.88;;;18.35;100.00
14089;BME280;7120;52.890;6.040;2023-05-12T09:08:58;101939.47;;;19.03;100.00
14089;BME280;7120;52.890;6.040;2023-05-12T09:11:23;101939.91;;;18.75;100.00
14089;BME280;7120;52.890;6.040;2023-05-12T09:14:08;101958.34;;;18.54;100.00
14089;BME280;7120;52.890;6.040;2023-05-12T09:16:40;101953.47;;;18.68;100.00
14089;BME280;7120;52.890;6.040;2023-05-12T09:19:07;101947.94;;;18.33;100.00
14089;BME280;7120;52.890;6.040;2023-05-12T09:21:32;101940.56;;;18.46;100.00
14089;BME280;7120;52.890;6.040;2023-05-12T09:24:03;101946.31;;;19.05;100.00
14089;BME280;7120;52.890;6.040;2023-05-12T09:26:52;101953.16;;;19.08;100.00
14089;BME280;7120;52.890;6.040;2023-05-12T09:29:19;101950.34;;;18.70;100.00
14089;BME280;7120;52.890;6.040;2023-05-12T09:31:55;101952.50;;;18.47;100.00
14089;BME280;7120;52.890;6.040;2023-05-12T09:34:27;101950.34;;;18.52;100.00
14089;BME280;7120;52.890;6.040;2023-05-12T09:36:58;101956.09;;;19.11;100.00
14089;BME280;7120;52.890;6.040;2023-05-12T09:39:25;101947.53;;;19.55;100.00
14089;BME280;7120;52.890;6.040;2023-05-12T09:41:50;101949.13;;;18.97;100.00
14089;BME280;7120;52.890;6.040;2023-05-12T09:44:19;101946.88;;;18.90;100.00
14089;BME280;7120;52.890;6.040;2023-05-12T09:46:45;101947.16;;;19.35;100.00
14089;BME280;7120;52.890;6.040;2023-05-12T09:49:11;101950.56;;;19.91;100.00
14089;BME280;7120;52.890;6.040;2023-05-12T09:51:36;101957.03;;;20.58;100.00
14089;BME280;7120;52.890;6.040;2023-05-12T09:54:02;101956.19;;;20.57;100.00
14089;BME280;7120;52.890;6.040;2023-05-12T09:56:29;101965.84;;;20.60;100.00
14089;BME280;7120;52.890;6.040;2023-05-12T09:58:57;101962.66;;;20.82;93.32
14089;BME280;7120;52.890;6.040;2023-05-12T10:01:23;101959.66;;;21.00;95.01
14089;BME280;7120;52.890;6.040;2023-05-12T10:03:53;101966.25;;;21.93;92.20
14089;BME280;7120;52.890;6.040;2023-05-12T10:06:31;101960.94;;;21.76;85.82
14089;BME280;7120;52.890;6.040;2023-05-12T10:11:46;101951.47;;;21.64;86.73
14089;BME280;7120;52.890;6.040;2023-05-12T10:14:12;101947.66;;;21.45;83.64
14089;BME280;7120;52.890;6.040;2023-05-12T10:16:39;101956.94;;;22.01;88.30
14089;BME280;7120;52.890;6.040;2023-05-12T10:19:05;101955.56;;;21.95;85.97
14089;BME280;7120;52.890;6.040;2023-05-12T10:21:30;101960.78;;;21.97;93.70
14089;BME280;7120;52.890;6.040;2023-05-12T10:23:56;101956.44;;;21.59;90.43
14089;BME280;7120;52.890;6.040;2023-05-12T10:26:22;101948.19;;;21.01;86.39
14089;BME280;7120;52.890;6.040;2023-05-12T10:28:49;101954.03;;;21.33;86.99
14089;BME280;7120;52.890;6.040;2023-05-12T10:31:15;101948.97;;;21.87;88.50
14089;BME280;7120;52.890;6.040;2023-05-12T10:33:41;101944.88;;;22.37;81.28
14089;BME280;7120;52.890;6.040;2023-05-12T10:36:19;101947.28;;;21.99;85.41
14089;BME280;7120;52.890;6.040;2023-05-12T10:38:47;101953.53;;;21.67;90.22
14089;BME280;7120;52.890;6.040;2023-05-12T10:41:15;101948.91;;;22.12;80.31
14089;BME280;7120;52.890;6.040;2023-05-12T10:43:46;101946.13;;;21.59;91.44
14089;BME280;7120;52.890;6.040;2023-05-12T10:46:18;101943.09;;;22.05;79.67
14089;BME280;7120;52.890;6.040;2023-05-12T10:49:09;101941.47;;;23.03;81.65
14089;BME280;7120;52.890;6.040;2023-05-12T10:54:10;101955.13;;;23.91;71.87
14089;BME280;7120;52.890;6.040;2023-05-12T10:59:21;101954.16;;;24.61;65.14
14089;BME280;7120;52.890;6.040;2023-05-12T11:02:00;101963.13;;;25.65;59.78
14089;BME280;7120;52.890;6.040;2023-05-12T11:07:05;101958.47;;;26.03;54.92
14089;BME280;7120;52.890;6.040;2023-05-12T11:09:44;101952.19;;;26.47;53.91
14089;BME280;7120;52.890;6.040;2023-05-12T11:12:11;101949.38;;;25.83;57.80
14089;BME280;7120;52.890;6.040;2023-05-12T11:14:38;101947.94;;;24.94;56.54
14089;BME280;7120;52.890;6.040;2023-05-12T11:17:04;101943.16;;;24.72;59.41
14089;BME280;7120;52.890;6.040;2023-05-12T11:19:30;101942.84;;;25.23;62.95
14089;BME280;7120;52.890;6.040;2023-05-12T11:21:56;101940.03;;;25.00;58.21
14089;BME280;7120;52.890;6.040;2023-05-12T11:24:23;101951.41;;;24.64;57.90
14089;BME280;7120;52.890;6.040;2023-05-12T11:26:48;101945.34;;;24.82;58.61
14089;BME280;7120;52.890;6.040;2023-05-12T11:29:20;101941.03;;;23.52;59.23
14089;BME280;7120;52.890;6.040;2023-05-12T11:31:47;101955.16;;;22.93;64.96
14089;BME280;7120;52.890;6.040;2023-05-12T11:34:13;101948.94;;;23.15;58.17
14089;BME280;7120;52.890;6.040;2023-05-12T11:36:42;101950.09;;;23.30;61.05
14089;BME280;7120;52.890;6.040;2023-05-12T11:39:19;101956.75;;;23.10;65.62
14089;BME280;7120;52.890;6.040;2023-05-12T11:41:48;101950.41;;;23.95;68.66
14089;BME280;7120;52.890;6.040;2023-05-12T11:44:18;101950.81;;;24.75;64.39
14089;BME280;7120;52.890;6.040;2023-05-12T11:47:13;101952.81;;;24.97;56.88
14089;BME280;7120;52.890;6.040;2023-05-12T11:49:49;101949.00;;;25.32;58.95
14089;BME280;7120;52.890;6.040;2023-05-12T11:52:18;101942.66;;;24.66;57.89
14089;BME280;7120;52.890;6.040;2023-05-12T11:57:29;101950.06;;;24.55;58.28
14089;BME280;7120;52.890;6.040;2023-05-12T12:00:00;101952.88;;;24.78;60.61
14089;BME280;7120;52.890;6.040;2023-05-12T12:02:26;101940.09;;;24.80;55.92
14089;BME280;7120;52.890;6.040;2023-05-12T12:04:51;101948.19;;;24.62;63.78
14089;BME280;7120;52.890;6.040;2023-05-12T12:07:28;101944.56;;;23.65;58.58
14089;BME280;7120;52.890;6.040;2023-05-12T12:09:54;101947.03;;;23.35;60.60
14089;BME280;7120;52.890;6.040;2023-05-12T12:12:19;101962.81;;;24.33;56.95
14089;BME280;7120;52.890;6.040;2023-05-12T12:14:44;101950.75;;;23.74;60.49
14089;BME280;7120;52.890;6.040;2023-05-12T12:17:10;101951.56;;;24.72;57.44
14089;BME280;7120;52.890;6.040;2023-05-12T12:19:36;101952.06;;;25.00;52.43
14089;BME280;7120;52.890;6.040;2023-05-12T12:22:01;101949.22;;;25.19;57.96
14089;BME280;7120;52.890;6.040;2023-05-12T12:24:26;101949.53;;;25.41;53.37
14089;BME280;7120;52.890;6.040;2023-05-12T12:26:52;101953.31;;;25.26;52.79
14089;BME280;7120;52.890;6.040;2023-05-12T12:29:17;101952.91;;;25.77;53.48
14089;BME280;7120;52.890;6.040;2023-05-12T12:31:43;101959.19;;;25.96;51.91
14089;BME280;7120;52.890;6.040;2023-05-12T12:34:09;101951.56;;;25.44;49.47
14089;BME280;7120;52.890;6.040;2023-05-12T12:36:34;101958.84;;;26.01;49.20
14089;BME280;7120;52.890;6.040;2023-05-12T12:39:00;101967.06;;;26.21;48.68
14089;BME280;7120;52.890;6.040;2023-05-12T12:41:27;101963.50;;;26.54;50.68
14089;BME280;7120;52.890;6.040;2023-05-12T12:43:52;101956.13;;;26.42;46.40
14089;BME280;7120;52.890;6.040;2023-05-12T12:46:18;101957.34;;;26.11;50.76
14089;BME280;7120;52.890;6.040;2023-05-12T12:48:43;101958.09;;;25.25;53.89
14089;BME280;7120;52.890;6.040;2023-05-12T12:51:09;101952.97;;;25.04;54.77
14089;BME280;7120;52.890;6.040;2023-05-12T12:53:35;101956.88;;;25.49;48.00
14089;BME280;7120;52.890;6.040;2023-05-12T12:56:01;101961.16;;;25.69;44.34
14089;BME280;7120;52.890;6.040;2023-05-12T12:58:27;101958.78;;;25.71;45.41
14089;BME280;7120;52.890;6.040;2023-05-12T13:00:53;101953.06;;;25.87;42.06
14089;BME280;7120;52.890;6.040;2023-05-12T13:03:18;101949.44;;;26.20;42.77
14089;BME280;7120;52.890;6.040;2023-05-12T13:05:43;101949.97;;;26.29;41.02